Time;durP1;ratioP1;P1;durP2;ratioP2;P2;SDS_P1;SDS_P2;PMS_P1;PMS_P2;Temp;Humidity;BMP_temperature;BMP_pressure;BME280_temperature;BME280_humidity;BME280_pressure;Samples;Min_cycle;Max_cycle;Signal;HPM_P1;HPM_P2
2022/07/19 00:01:09;;;;;;;4.75;1.30;;;11.60;99.90;;;;;;5073182;28;20036;-76
2022/07/19 00:03:36;;;;;;;8.15;1.92;;;11.70;99.90;;;;;;5071868;28;20028;-76
2022/07/19 00:06:04;;;;;;;6.10;2.67;;;11.60;99.90;;;;;;5072144;28;20031;-76
2022/07/19 00:08:31;;;;;;;7.07;2.80;;;11.60;99.90;;;;;;5072102;28;20050;-75
2022/07/19 00:10:58;;;;;;;6.53;1.73;;;11.50;99.90;;;;;;5071750;28;20337;-77
2022/07/19 00:13:26;;;;;;;4.72;1.73;;;11.60;99.90;;;;;;5073276;28;20021;-77
2022/07/19 00:15:53;;;;;;;4.57;1.15;;;11.60;99.90;;;;;;5072027;28;20025;-76
2022/07/19 00:18:20;;;;;;;5.85;1.23;;;11.70;99.90;;;;;;5072147;28;20511;-76
2022/07/19 00:20:48;;;;;;;4.45;1.50;;;11.90;99.90;;;;;;5073386;28;20476;-76
2022/07/19 00:23:15;;;;;;;6.35;1.30;;;12.00;99.90;;;;;;5072079;28;20032;-77
2022/07/19 00:25:43;;;;;;;7.97;1.30;;;12.20;99.90;;;;;;5071584;28;20025;-76
2022/07/19 00:28:10;;;;;;;7.45;1.25;;;12.30;99.90;;;;;;5071461;28;20035;-76
2022/07/19 00:30:38;;;;;;;4.05;1.10;;;12.40;99.90;;;;;;5071341;28;20024;-76
2022/07/19 00:33:08;;;;;;;3.20;0.60;;;12.60;99.90;;;;;;5073070;28;20025;-76
2022/07/19 00:35:37;;;;;;;8.68;1.70;;;12.50;99.90;;;;;;5071616;28;20040;-76
2022/07/19 00:38:09;;;;;;;6.22;1.38;;;12.70;99.90;;;;;;5071419;28;20108;-76
2022/07/19 00:40:38;;;;;;;4.50;1.02;;;12.90;99.90;;;;;;5071517;28;20036;-75
2022/07/19 00:43:06;;;;;;;7.03;0.90;;;13.00;99.90;;;;;;5054824;28;20031;-77
2022/07/19 00:45:34;;;;;;;4.60;0.82;;;13.20;99.90;;;;;;5072442;28;20025;-78
2022/07/19 00:48:02;;;;;;;5.22;1.10;;;13.00;99.90;;;;;;5071006;28;20200;-76
2022/07/19 00:50:29;;;;;;;4.28;0.90;;;12.90;99.90;;;;;;5072558;28;20013;-76
2022/07/19 00:53:04;;;;;;;6.55;1.40;;;13.00;99.90;;;;;;5071214;28;20031;-77
2022/07/19 00:55:35;;;;;;;8.30;1.75;;;13.00;99.90;;;;;;5072840;28;20101;-77
2022/07/19 00:58:03;;;;;;;3.67;0.63;;;13.00;99.90;;;;;;5074825;28;20024;-77
2022/07/19 01:00:34;;;;;;;7.68;1.13;;;13.00;99.90;;;;;;5076018;28;20020;-77
2022/07/19 01:03:02;;;;;;;5.70;0.85;;;12.90;99.90;;;;;;5076525;28;20012;-77
2022/07/19 01:05:30;;;;;;;5.68;1.02;;;12.80;99.90;;;;;;5074830;28;20467;-77
2022/07/19 01:07:57;;;;;;;5.07;0.90;;;12.80;99.90;;;;;;5075849;28;20023;-77
2022/07/19 01:10:26;;;;;;;4.97;1.25;;;12.90;99.90;;;;;;5074631;28;20163;-77
2022/07/19 01:12:53;;;;;;;3.15;0.63;;;13.00;99.90;;;;;;5075489;28;20021;-76
2022/07/19 01:15:23;;;;;;;4.45;1.63;;;12.90;99.90;;;;;;5074498;28;20545;-77
2022/07/19 01:17:51;;;;;;;5.28;1.20;;;12.80;99.90;;;;;;5074275;28;20487;-77
2022/07/19 01:20:24;;;;;;;4.22;1.00;;;12.70;99.90;;;;;;5074194;28;20036;-77
2022/07/19 01:22:52;;;;;;;4.68;0.90;;;12.70;99.90;;;;;;5074317;28;20415;-74
2022/07/19 01:25:19;;;;;;;7.13;1.00;;;12.70;99.90;;;;;;5074027;28;20024;-75
2022/07/19 01:27:48;;;;;;;5.40;0.60;;;12.80;99.90;;;;;;5074011;28;20396;-76
2022/07/19 01:30:22;;;;;;;3.60;0.93;;;12.90;99.90;;;;;;5075394;28;20024;-75
2022/07/19 01:32:50;;;;;;;4.70;0.80;;;12.80;99.90;;;;;;5074372;28;20039;-75
2022/07/19 01:35:18;;;;;;;7.60;1.52;;;12.70;99.90;;;;;;5075369;28;20104;-75
2022/07/19 01:37:46;;;;;;;6.28;0.80;;;12.40;99.90;;;;;;5073588;28;20028;-75
2022/07/19 01:40:16;;;;;;;5.38;0.55;;;12.30;99.90;;;;;;5073739;28;20048;-74
2022/07/19 01:42:44;;;;;;;4.70;0.90;;;12.30;99.90;;;;;;5073450;28;20047;-75
2022/07/19 01:45:12;;;;;;;6.80;1.08;;;12.40;99.90;;;;;;5073617;28;20032;-74
2022/07/19 01:47:43;;;;;;;6.30;0.80;;;12.50;99.90;;;;;;5073389;28;20116;-75
2022/07/19 01:50:13;;;;;;;4.53;0.70;;;12.60;99.90;;;;;;5074972;28;20025;-76
2022/07/19 01:52:41;;;;;;;3.40;0.90;;;12.70;99.90;;;;;;5073611;28;20020;-75
2022/07/19 01:55:12;;;;;;;5.07;0.90;;;12.80;99.90;;;;;;5073914;28;20021;-75
2022/07/19 01:57:39;;;;;;;8.13;0.95;;;12.80;99.90;;;;;;5073512;28;20076;-76
2022/07/19 02:00:07;;;;;;;2.90;0.55;;;12.70;99.90;;;;;;5073510;28;20036;-76
2022/07/19 02:02:34;;;;;;;4.15;0.70;;;12.70;99.90;;;;;;5073431;28;20036;-76
2022/07/19 02:05:03;;;;;;;5.10;0.65;;;12.80;99.90;;;;;;5073790;28;20028;-74
2022/07/19 02:07:30;;;;;;;5.22;1.02;;;12.90;99.90;;;;;;5073066;28;20028;-74
2022/07/19 02:09:58;;;;;;;5.90;1.30;;;13.00;99.90;;;;;;5074568;28;20116;-75
2022/07/19 02:12:25;;;;;;;5.18;1.02;;;13.30;99.90;;;;;;5074299;28;20024;-75
2022/07/19 02:14:53;;;;;;;6.07;1.15;;;13.20;99.90;;;;;;5074683;28;20074;-75
2022/07/19 02:17:20;;;;;;;4.50;1.00;;;13.10;99.90;;;;;;5074340;28;20103;-75
2022/07/19 02:19:48;;;;;;;2.75;0.70;;;13.10;99.90;;;;;;5074607;28;20033;-74
2022/07/19 02:22:15;;;;;;;6.50;0.73;;;13.00;99.90;;;;;;5072937;28;20515;-75
2022/07/19 02:24:42;;;;;;;5.38;0.80;;;13.10;99.90;;;;;;5072737;28;20116;-74
2022/07/19 02:27:11;;;;;;;6.72;0.70;;;13.30;99.90;;;;;;5074111;28;20139;-75
2022/07/19 02:29:39;;;;;;;4.70;0.80;;;13.20;99.90;;;;;;5072683;28;20033;-74
2022/07/19 02:32:07;;;;;;;4.38;0.80;;;13.20;99.90;;;;;;5074291;28;20028;-76
2022/07/19 02:34:35;;;;;;;5.57;1.08;;;13.30;99.90;;;;;;5074103;28;20031;-75
2022/07/19 02:37:03;;;;;;;7.15;0.80;;;13.10;99.90;;;;;;5072671;28;20020;-74
2022/07/19 02:39:30;;;;;;;3.78;0.60;;;13.00;99.90;;;;;;5072373;28;20459;-74
2022/07/19 02:41:58;;;;;;;2.70;0.50;;;12.80;99.90;;;;;;5074012;28;20029;-74
2022/07/19 02:44:25;;;;;;;7.85;0.95;;;12.90;99.90;;;;;;5074005;28;20027;-75
2022/07/19 02:46:53;;;;;;;6.38;0.80;;;13.00;99.90;;;;;;5074151;28;20384;-74
2022/07/19 02:49:20;;;;;;;5.40;1.10;;;13.10;99.90;;;;;;5073707;28;20044;-75
2022/07/19 02:51:48;;;;;;;3.38;0.75;;;13.10;99.90;;;;;;5072654;28;20028;-75
2022/07/19 02:54:15;;;;;;;4.28;1.05;;;12.90;99.90;;;;;;5072201;28;20024;-74
2022/07/19 02:56:43;;;;;;;5.85;0.98;;;12.50;99.90;;;;;;5074076;28;20516;-74
2022/07/19 02:59:10;;;;;;;5.60;0.80;;;12.30;99.90;;;;;;5072526;28;20029;-74
2022/07/19 03:01:38;;;;;;;3.72;1.00;;;12.20;99.90;;;;;;5073765;28;20062;-74
2022/07/19 03:04:05;;;;;;;6.88;1.13;;;12.20;99.90;;;;;;5072370;28;20119;-74
2022/07/19 03:06:32;;;;;;;6.15;1.10;;;12.00;99.90;;;;;;5072270;28;20024;-75
2022/07/19 03:09:03;;;;;;;5.82;1.10;;;11.90;99.90;;;;;;5072609;28;20455;-75
2022/07/19 03:11:30;;;;;;;5.50;0.80;;;12.20;99.90;;;;;;5073845;28;20026;-75
2022/07/19 03:13:58;;;;;;;9.52;0.90;;;12.40;99.90;;;;;;5072368;28;20024;-74
2022/07/19 03:16:25;;;;;;;3.60;1.20;;;12.40;99.90;;;;;;5072157;28;20031;-74
2022/07/19 03:18:52;;;;;;;5.50;1.08;;;12.70;99.90;;;;;;5072794;28;20492;-74
2022/07/19 03:21:20;;;;;;;5.50;1.00;;;12.90;99.90;;;;;;5071781;28;20492;-75
2022/07/19 03:23:47;;;;;;;4.93;1.00;;;12.70;99.90;;;;;;5073448;28;20024;-75
2022/07/19 03:26:14;;;;;;;5.43;1.00;;;12.40;99.90;;;;;;5072107;28;20020;-75
2022/07/19 03:28:42;;;;;;;7.30;1.40;;;12.20;99.90;;;;;;5072137;28;20025;-75
2022/07/19 03:31:12;;;;;;;6.68;1.50;;;11.80;99.90;;;;;;5071961;28;20093;-76
2022/07/19 03:33:40;;;;;;;6.53;1.20;;;11.50;99.90;;;;;;5072288;28;20055;-77
2022/07/19 03:36:07;;;;;;;7.13;1.55;;;11.50;99.90;;;;;;5072313;28;20412;-78
2022/07/19 03:38:34;;;;;;;5.68;1.38;;;11.30;99.90;;;;;;5072423;28;20032;-77
2022/07/19 03:41:02;;;;;;;7.50;1.65;;;11.20;99.90;;;;;;5072474;28;20095;-78
2022/07/19 03:43:30;;;;;;;8.88;1.77;;;11.30;99.90;;;;;;5073856;28;20030;-77
2022/07/19 03:45:57;;;;;;;7.70;1.40;;;11.30;99.90;;;;;;5073489;28;20071;-80
2022/07/19 03:48:24;;;;;;;13.00;1.83;;;11.30;99.90;;;;;;5073992;28;20036;-79
2022/07/19 03:50:52;;;;;;;8.15;1.13;;;11.30;99.90;;;;;;5074130;28;20096;-78
2022/07/19 03:53:19;;;;;;;8.00;1.10;;;11.40;99.90;;;;;;5072816;28;20024;-78
2022/07/19 03:55:47;;;;;;;7.57;1.73;;;11.40;99.90;;;;;;5073939;28;20441;-78
2022/07/19 03:58:14;;;;;;;8.30;1.58;;;11.40;99.90;;;;;;5072740;28;20070;-79
2022/07/19 04:00:41;;;;;;;6.95;1.50;;;11.50;99.90;;;;;;5073007;28;20385;-78
2022/07/19 04:03:12;;;;;;;7.93;2.10;;;11.80;99.90;;;;;;5073241;28;20095;-77
2022/07/19 04:05:39;;;;;;;8.77;1.55;;;11.70;99.90;;;;;;5072362;28;20021;-78
2022/07/19 04:08:07;;;;;;;4.55;1.35;;;11.40;99.90;;;;;;5073768;28;20099;-77
2022/07/19 04:10:34;;;;;;;6.43;1.33;;;11.40;99.90;;;;;;5072511;28;20024;-78
2022/07/19 04:13:01;;;;;;;8.40;1.45;;;11.40;99.90;;;;;;5074041;28;20538;-79
2022/07/19 04:15:29;;;;;;;5.10;1.45;;;11.40;99.90;;;;;;5072415;28;20017;-78
2022/07/19 04:17:56;;;;;;;3.95;0.90;;;11.40;99.90;;;;;;5073806;28;20051;-78
2022/07/19 04:20:24;;;;;;;7.07;1.00;;;11.40;99.90;;;;;;5074254;28;20476;-78
2022/07/19 04:22:51;;;;;;;4.43;1.27;;;11.40;99.90;;;;;;5072772;28;20116;-76
2022/07/19 04:25:18;;;;;;;4.95;1.00;;;11.30;99.90;;;;;;5073977;28;20361;-78
2022/07/19 04:27:47;;;;;;;5.32;1.90;;;11.30;99.90;;;;;;5072661;28;20021;-78
2022/07/19 04:30:14;;;;;;;6.93;1.50;;;11.30;99.90;;;;;;5073998;28;20464;-78
2022/07/19 04:32:42;;;;;;;5.88;1.63;;;11.40;99.90;;;;;;5077226;28;20023;-78
2022/07/19 04:35:09;;;;;;;9.75;1.98;;;11.60;99.90;;;;;;5076878;28;20046;-80
2022/07/19 04:37:37;;;;;;;7.88;1.55;;;11.90;99.90;;;;;;5076514;28;20527;-78
2022/07/19 04:40:05;;;;;;;7.22;1.67;;;11.90;99.90;;;;;;5077838;28;20028;-77
2022/07/19 04:42:34;;;;;;;10.38;1.55;;;11.90;99.90;;;;;;5077282;28;20082;-77
2022/07/19 04:45:02;;;;;;;4.75;1.02;;;11.70;99.90;;;;;;5076337;28;20032;-77
2022/07/19 04:47:29;;;;;;;6.40;1.95;;;11.60;99.90;;;;;;5059726;28;20028;-79
2022/07/19 04:49:56;;;;;;;7.82;1.45;;;11.40;99.90;;;;;;5077564;28;20021;-77
2022/07/19 04:52:24;;;;;;;3.95;1.17;;;11.40;99.90;;;;;;5075494;28;20021;-76
2022/07/19 04:54:51;;;;;;;7.38;1.20;;;11.30;99.90;;;;;;5077450;28;20472;-77
2022/07/19 04:57:19;;;;;;;4.75;1.23;;;11.40;99.90;;;;;;5075366;28;20070;-80
2022/07/19 04:59:46;;;;;;;4.40;1.13;;;11.30;99.90;;;;;;5077160;28;20024;-79
2022/07/19 05:02:14;;;;;;;6.93;1.40;;;11.40;99.90;;;;;;5077085;28;20056;-78
2022/07/19 05:04:41;;;;;;;3.95;1.13;;;11.40;99.90;;;;;;5075904;28;20024;-78
2022/07/19 05:07:09;;;;;;;6.10;1.38;;;11.40;99.90;;;;;;5075852;28;20388;-78
2022/07/19 05:09:36;;;;;;;3.58;1.30;;;11.40;99.90;;;;;;5075357;28;20024;-77
2022/07/19 05:12:07;;;;;;;8.23;2.03;;;11.20;99.90;;;;;;5076753;28;20012;-78
2022/07/19 05:14:35;;;;;;;3.55;1.35;;;11.20;99.90;;;;;;5075219;28;20025;-77
2022/07/19 05:17:03;;;;;;;5.10;1.63;;;11.60;99.90;;;;;;5076518;28;20078;-78
2022/07/19 05:19:30;;;;;;;4.25;1.00;;;11.50;99.90;;;;;;5076230;28;20063;-79
2022/07/19 05:21:57;;;;;;;6.82;1.30;;;11.70;99.90;;;;;;5077205;28;20100;-78
2022/07/19 05:24:25;;;;;;;5.50;1.40;;;11.50;99.90;;;;;;5076894;28;20024;-78
2022/07/19 05:26:52;;;;;;;5.88;1.58;;;11.50;99.90;;;;;;5075246;28;20056;-79
2022/07/19 05:29:20;;;;;;;6.63;1.50;;;11.40;99.90;;;;;;5075383;28;20032;-80
2022/07/19 05:31:47;;;;;;;4.85;1.50;;;11.40;99.90;;;;;;5075242;28;20020;-78
2022/07/19 05:34:15;;;;;;;6.15;2.60;;;11.60;99.90;;;;;;5076418;28;20016;-77
2022/07/19 05:36:42;;;;;;;3.38;1.40;;;11.70;99.90;;;;;;5075947;28;20021;-78
2022/07/19 05:39:10;;;;;;;5.43;1.80;;;11.60;99.90;;;;;;5075683;28;20028;-78
2022/07/19 05:41:37;;;;;;;5.22;1.40;;;11.60;99.90;;;;;;5075416;28;20476;-78
2022/07/19 05:44:04;;;;;;;5.82;1.30;;;11.60;99.90;;;;;;5074442;28;20028;-76
2022/07/19 05:46:32;;;;;;;5.68;1.35;;;11.60;99.90;;;;;;5074559;28;20028;-76
2022/07/19 05:48:59;;;;;;;4.75;1.50;;;11.60;99.90;;;;;;5074615;28;20049;-78
2022/07/19 05:51:27;;;;;;;5.95;1.08;;;11.60;99.90;;;;;;5076280;28;20017;-77
2022/07/19 05:53:54;;;;;;;4.28;0.90;;;11.50;99.90;;;;;;5073976;28;20048;-77
2022/07/19 05:56:21;;;;;;;5.43;1.23;;;11.40;99.90;;;;;;5073751;28;20024;-78
2022/07/19 05:58:49;;;;;;;3.42;0.60;;;11.50;99.90;;;;;;5074486;28;20029;-80
2022/07/19 06:01:19;;;;;;;8.23;1.50;;;11.50;99.90;;;;;;5073503;28;20021;-78
2022/07/19 06:04:04;;;;;;;6.53;1.33;;;11.50;99.90;;;;;;5073820;28;20031;-78
2022/07/19 06:06:33;;;;;;;8.40;2.13;;;11.60;99.90;;;;;;5073756;28;20480;-77
2022/07/19 06:09:02;;;;;;;5.95;1.33;;;11.70;99.90;;;;;;5074681;28;20504;-77
2022/07/19 06:11:30;;;;;;;6.47;1.40;;;11.70;99.90;;;;;;5074962;28;20116;-77
2022/07/19 06:13:57;;;;;;;7.28;1.10;;;11.60;99.90;;;;;;5073106;28;20066;-78
2022/07/19 06:16:26;;;;;;;6.35;1.88;;;11.60;99.90;;;;;;5073025;28;20527;-77
2022/07/19 06:18:53;;;;;;;8.13;2.10;;;11.60;99.90;;;;;;5074181;28;20025;-78
2022/07/19 06:21:22;;;;;;;5.10;1.67;;;11.60;99.90;;;;;;5074832;28;20028;-77
2022/07/19 06:23:49;;;;;;;5.88;2.15;;;11.60;99.90;;;;;;5074337;28;20024;-76
2022/07/19 06:26:17;;;;;;;6.32;1.70;;;11.60;99.90;;;;;;5074348;28;20391;-76
2022/07/19 06:28:45;;;;;;;6.25;2.22;;;11.60;99.90;;;;;;5073148;28;20025;-76
2022/07/19 06:31:14;;;;;;;7.18;2.17;;;11.50;99.90;;;;;;5072854;28;20537;-77
2022/07/19 06:33:42;;;;;;;8.15;1.85;;;11.50;99.90;;;;;;5073087;28;20020;-79
2022/07/19 06:36:10;;;;;;;9.85;2.03;;;11.50;99.90;;;;;;5075441;28;20091;-77
2022/07/19 06:38:38;;;;;;;8.60;2.03;;;11.40;99.90;;;;;;5074075;28;20119;-75
2022/07/19 06:41:07;;;;;;;6.22;2.05;;;11.40;99.90;;;;;;5072963;28;20056;-79
2022/07/19 06:43:38;;;;;;;8.57;2.20;;;11.40;99.90;;;;;;5074088;28;20392;-79
2022/07/19 06:46:06;;;;;;;9.05;2.28;;;11.40;99.90;;;;;;5073768;28;20025;-78
2022/07/19 06:48:35;;;;;;;6.38;1.73;;;11.40;99.90;;;;;;5072622;28;20044;-80
2022/07/19 06:51:03;;;;;;;9.02;1.55;;;11.30;99.90;;;;;;5073929;28;20024;-78
2022/07/19 06:53:30;;;;;;;6.57;1.83;;;11.30;99.90;;;;;;5076263;28;20116;-78
2022/07/19 06:55:57;;;;;;;7.13;2.22;;;11.20;99.90;;;;;;5075236;28;20484;-78
2022/07/19 06:58:25;;;;;;;8.00;1.83;;;11.20;99.90;;;;;;5076680;28;20033;-81
2022/07/19 07:00:52;;;;;;;11.10;1.98;;;11.10;99.90;;;;;;5080712;28;20031;-83
2022/07/19 07:03:20;;;;;;;9.30;2.65;;;11.10;99.90;;;;;;5079758;28;20451;-79
2022/07/19 07:05:47;;;;;;;8.55;2.00;;;11.10;99.90;;;;;;5078804;28;20035;-79
2022/07/19 07:08:15;;;;;;;8.65;1.42;;;11.10;99.90;;;;;;5078783;28;20032;-80
2022/07/19 07:10:42;;;;;;;10.82;2.10;;;11.10;99.90;;;;;;5081003;28;20494;-82
2022/07/19 07:13:11;;;;;;;10.50;2.15;;;11.10;99.90;;;;;;5074592;28;20093;-80
2022/07/19 07:15:39;;;;;;;5.55;1.08;;;11.10;99.90;;;;;;5073801;28;20017;-80
2022/07/19 07:18:07;;;;;;;8.60;1.83;;;11.10;99.90;;;;;;5076707;28;20017;-80
2022/07/19 07:20:34;;;;;;;7.20;1.80;;;11.10;99.90;;;;;;5072847;28;20111;-80
2022/07/19 07:23:03;;;;;;;8.57;1.83;;;11.10;99.90;;;;;;5074496;28;20020;-80
2022/07/19 07:25:31;;;;;;;8.98;1.70;;;11.10;99.90;;;;;;5073652;28;20091;-82
2022/07/19 07:27:58;;;;;;;5.60;1.50;;;11.20;99.90;;;;;;5076591;28;20503;-84
2022/07/19 07:30:26;;;;;;;9.57;2.67;;;11.20;99.90;;;;;;5076168;28;20035;-82
2022/07/19 07:32:53;;;;;;;13.48;2.50;;;11.20;99.90;;;;;;5077576;28;20024;-83
2022/07/19 07:35:21;;;;;;;10.75;2.50;;;11.20;99.90;;;;;;5075630;28;20078;-83
2022/07/19 07:37:48;;;;;;;7.32;2.75;;;11.20;99.90;;;;;;5076706;28;20020;-82
2022/07/19 07:40:18;;;;;;;9.48;3.78;;;11.10;99.90;;;;;;5077687;28;20119;-84
2022/07/19 07:42:46;;;;;;;8.75;3.00;;;11.10;99.90;;;;;;5078037;28;20025;-81
2022/07/19 07:45:14;;;;;;;9.43;2.90;;;11.00;99.90;;;;;;5075857;28;20091;-80
2022/07/19 07:47:41;;;;;;;10.98;3.85;;;10.90;99.90;;;;;;5075957;28;20052;-81
2022/07/19 07:50:10;;;;;;;5.20;2.50;;;10.90;99.90;;;;;;5072570;28;20025;-80
2022/07/19 07:52:37;;;;;;;4.45;2.40;;;10.80;99.90;;;;;;5071671;28;20089;-80
2022/07/19 07:55:05;;;;;;;6.22;2.90;;;10.80;99.90;;;;;;5073039;28;20024;-80
2022/07/19 07:57:33;;;;;;;7.55;3.03;;;10.80;99.90;;;;;;5073214;28;20028;-80
2022/07/19 08:00:01;;;;;;;5.38;2.92;;;10.80;99.90;;;;;;5071836;28;20036;-80
2022/07/19 08:02:28;;;;;;;5.50;2.67;;;10.70;99.90;;;;;;5073473;28;20020;-79
2022/07/19 08:04:55;;;;;;;7.78;3.20;;;10.70;99.90;;;;;;5072735;28;20506;-80
2022/07/19 08:07:23;;;;;;;9.45;3.72;;;10.70;99.90;;;;;;5075794;28;20431;-80
2022/07/19 08:09:50;;;;;;;9.50;3.75;;;10.80;99.90;;;;;;5077137;28;20469;-79
2022/07/19 08:12:18;;;;;;;8.75;4.28;;;10.70;99.90;;;;;;5075542;28;20016;-81
2022/07/19 08:14:45;;;;;;;7.45;4.15;;;10.80;99.90;;;;;;5076009;28;20028;-81
2022/07/19 08:17:14;;;;;;;5.85;4.25;;;10.80;99.90;;;;;;5075939;28;20477;-82
2022/07/19 08:19:42;;;;;;;10.57;4.95;;;10.70;99.90;;;;;;5075663;28;20166;-80
2022/07/19 08:22:10;;;;;;;9.00;4.35;;;10.70;99.90;;;;;;5076917;28;20024;-80
2022/07/19 08:24:37;;;;;;;7.50;3.85;;;10.70;99.90;;;;;;5075719;28;20036;-79
2022/07/19 08:27:04;;;;;;;4.75;3.70;;;10.60;99.90;;;;;;5076736;28;20158;-81
2022/07/19 08:29:32;;;;;;;6.80;3.90;;;10.60;99.90;;;;;;5075320;28;20063;-80
2022/07/19 08:31:59;;;;;;;6.30;4.00;;;10.60;99.90;;;;;;5075310;28;20024;-80
2022/07/19 08:34:26;;;;;;;6.38;3.80;;;10.70;99.90;;;;;;5076502;28;20016;-80
2022/07/19 08:36:54;;;;;;;6.68;3.63;;;10.60;99.90;;;;;;5075799;28;20051;-80
2022/07/19 08:39:21;;;;;;;10.07;5.20;;;10.70;99.90;;;;;;5076848;28;20025;-81
2022/07/19 08:41:48;;;;;;;7.93;4.57;;;10.70;99.90;;;;;;5078905;28;20056;-77
2022/07/19 08:44:18;;;;;;;9.25;4.60;;;10.70;99.90;;;;;;5079814;28;20028;-79
2022/07/19 08:46:46;;;;;;;8.20;3.85;;;10.70;99.90;;;;;;5076171;28;20032;-78
2022/07/19 08:49:14;;;;;;;9.50;5.18;;;10.60;99.90;;;;;;5074704;28;20047;-79
2022/07/19 08:51:43;;;;;;;10.65;4.65;;;10.60;99.90;;;;;;5076693;28;20361;-78
2022/07/19 08:54:11;;;;;;;9.20;4.10;;;10.50;99.90;;;;;;5076723;28;20349;-77
2022/07/19 08:59:24;;;;;;;8.55;4.20;;;10.40;99.90;;;;;;5076239;28;20396;-78
2022/07/19 09:01:52;;;;;;;9.43;5.28;;;10.50;99.90;;;;;;5076186;28;20103;-80
2022/07/19 09:04:24;;;;;;;10.68;4.38;;;10.40;99.90;;;;;;5076888;28;20099;-80
2022/07/19 09:06:54;;;;;;;9.98;4.57;;;10.40;99.90;;;;;;5074667;28;20028;-78
2022/07/19 09:09:34;;;;;;;11.30;4.83;;;10.50;99.90;;;;;;5074616;28;20396;-78
2022/07/19 09:12:04;;;;;;;7.05;4.18;;;10.50;99.90;;;;;;5074609;28;20032;-77
2022/07/19 09:14:41;;;;;;;10.07;4.50;;;10.40;99.90;;;;;;5075899;28;20065;-77
2022/07/19 09:17:12;;;;;;;6.15;3.97;;;10.40;99.90;;;;;;5075454;28;20020;-77
2022/07/19 09:19:45;;;;;;;8.80;4.65;;;10.40;99.90;;;;;;5076051;28;20035;-77
2022/07/19 09:22:19;;;;;;;6.53;4.28;;;10.30;99.90;;;;;;5074265;28;20032;-77
2022/07/19 09:24:51;;;;;;;5.30;3.90;;;10.30;99.90;;;;;;5074095;28;20424;-78
2022/07/19 09:27:25;;;;;;;7.10;4.43;;;10.30;99.90;;;;;;5076133;28;20479;-78
2022/07/19 09:29:57;;;;;;;13.13;8.68;;;10.30;99.90;;;;;;5075608;28;20028;-77
2022/07/19 09:32:26;;;;;;;12.57;6.80;;;10.30;99.90;;;;;;5074130;28;20025;-79
2022/07/19 09:35:02;;;;;;;11.57;6.95;;;10.30;99.90;;;;;;5074605;28;20388;-78
2022/07/19 09:37:34;;;;;;;9.43;6.15;;;10.30;99.90;;;;;;5074085;28;20032;-78
2022/07/19 09:40:04;;;;;;;7.70;4.10;;;10.30;99.90;;;;;;5073902;28;20025;-77
2022/07/19 09:42:40;;;;;;;12.80;4.20;;;10.40;99.90;;;;;;5075484;28;20074;-77
2022/07/19 09:45:10;;;;;;;9.38;5.45;;;10.30;99.90;;;;;;5075045;28;20507;-77
2022/07/19 09:47:45;;;;;;;9.48;5.97;;;10.30;99.90;;;;;;5073490;28;20163;-76
2022/07/19 09:50:17;;;;;;;7.30;3.63;;;10.30;99.90;;;;;;5075008;28;20478;-76
2022/07/19 09:52:46;;;;;;;4.65;2.75;;;10.20;99.90;;;;;;5073738;28;20083;-78
2022/07/19 09:55:14;;;;;;;5.95;3.25;;;10.20;99.90;;;;;;5074891;28;20012;-77
2022/07/19 09:57:47;;;;;;;7.60;3.42;;;10.20;99.90;;;;;;5075406;28;20048;-77
2022/07/19 10:00:17;;;;;;;5.90;3.20;;;10.20;99.90;;;;;;5074088;28;20035;-79
2022/07/19 10:02:50;;;;;;;8.15;3.97;;;10.30;99.90;;;;;;5073480;28;20510;-80
2022/07/19 10:05:19;;;;;;;7.22;3.30;;;10.30;99.90;;;;;;5074869;28;20507;-77
2022/07/19 10:07:47;;;;;;;8.15;3.40;;;10.20;99.90;;;;;;5073438;28;20020;-77
2022/07/19 10:10:17;;;;;;;8.60;3.70;;;10.20;99.90;;;;;;5073548;28;20111;-79
2022/07/19 10:12:46;;;;;;;4.03;3.10;;;10.20;99.90;;;;;;5073860;28;20043;-82
2022/07/19 10:15:17;;;;;;;4.70;3.33;;;10.20;99.90;;;;;;5074097;28;20028;-79
2022/07/19 10:17:46;;;;;;;;;;;10.20;99.90;;;;;;5074237;28;20024;-79
2022/07/19 10:20:19;;;;;;;8.10;4.25;;;10.20;99.90;;;;;;5075607;28;19950;-80
2022/07/19 10:22:47;;;;;;;11.63;5.13;;;10.20;99.90;;;;;;5074286;28;20052;-79
2022/07/19 10:25:17;;;;;;;11.63;4.88;;;10.20;99.90;;;;;;5075234;28;20020;-79
2022/07/19 10:27:51;;;;;;;9.25;5.13;;;10.20;99.90;;;;;;5074276;28;20116;-80
2022/07/19 10:30:25;;;;;;;9.18;4.75;;;10.20;99.90;;;;;;5073238;28;20031;-80
2022/07/19 10:32:56;;;;;;;7.40;4.07;;;10.10;99.90;;;;;;5073254;28;20021;-80
2022/07/19 10:35:26;;;;;;;;;;;10.10;99.90;;;;;;5075184;28;20025;-76
2022/07/19 10:38:10;;;;;;;13.43;4.28;;;10.10;99.90;;;;;;5072705;28;19905;-78
2022/07/19 10:40:37;;;;;;;9.05;4.05;;;10.20;99.90;;;;;;5072702;28;20054;-83
2022/07/19 10:43:06;;;;;;;8.40;3.70;;;10.20;99.90;;;;;;5079719;28;20108;-81
2022/07/19 10:45:35;;;;;;;6.30;3.45;;;10.20;99.90;;;;;;5081691;28;20021;-83
2022/07/19 10:48:06;;;;;;;8.65;3.80;;;10.10;99.90;;;;;;5081099;28;20048;-83
2022/07/19 10:50:44;;;;;;;6.72;2.78;;;10.20;99.90;;;;;;5079989;28;20162;-84
2022/07/19 10:53:31;;;;;;;6.93;3.55;;;10.20;99.90;;;;;;5076151;28;20025;-84
2022/07/19 10:56:18;;;;;;;6.20;3.05;;;10.20;99.90;;;;;;5077533;28;20016;-84
2022/07/19 10:58:54;;;;;;;6.00;3.50;;;10.50;99.90;;;;;;5078710;28;20056;-85
2022/07/19 11:01:23;;;;;;;6.43;3.70;;;10.30;99.90;;;;;;5087789;28;20039;-83
2022/07/19 11:03:52;;;;;;;6.63;3.47;;;10.20;99.90;;;;;;5090908;28;20088;-86
2022/07/19 11:06:25;;;;;;;6.72;3.63;;;10.20;99.90;;;;;;5083188;28;20024;-85
2022/07/19 11:08:57;;;;;;;7.18;3.30;;;10.20;99.90;;;;;;5084386;28;20107;-85
2022/07/19 11:11:26;;;;;;;8.88;3.50;;;10.30;99.90;;;;;;5077931;28;20091;-80
2022/07/19 11:13:58;;;;;;;8.48;4.00;;;10.20;99.90;;;;;;5075135;28;20077;-79
2022/07/19 11:16:27;;;;;;;8.10;4.07;;;10.30;99.90;;;;;;5074592;28;20495;-81
2022/07/19 11:19:04;;;;;;;7.05;3.65;;;10.30;99.90;;;;;;5075418;28;20081;-82
2022/07/19 11:21:35;;;;;;;9.57;3.35;;;10.30;99.90;;;;;;5073862;28;20519;-82
2022/07/19 11:24:06;;;;;;;5.97;3.40;;;10.20;99.90;;;;;;5057539;28;20036;-82
2022/07/19 11:26:40;;;;;;;8.43;3.90;;;10.10;99.90;;;;;;5074182;28;20032;-82
2022/07/19 11:29:07;;;;;;;7.40;4.22;;;10.00;99.90;;;;;;5072198;28;20396;-81
2022/07/19 11:31:45;;;;;;;5.00;3.17;;;10.00;99.90;;;;;;5072134;28;20031;-81
2022/07/19 11:34:13;;;;;;;8.02;3.97;;;9.90;99.90;;;;;;5073777;28;20551;-81
2022/07/19 11:36:40;;;;;;;7.18;4.70;;;9.90;99.90;;;;;;5073828;28;20021;-82
2022/07/19 11:39:07;;;;;;;8.68;4.95;;;9.80;99.90;;;;;;5072112;28;20064;-81
2022/07/19 11:41:35;;;;;;;8.48;4.30;;;9.90;99.90;;;;;;5072376;28;20380;-83
2022/07/19 11:44:05;;;;;;;7.53;4.20;;;9.90;99.90;;;;;;5072168;28;20020;-81
2022/07/19 11:46:39;;;;;;;9.52;4.50;;;9.90;99.90;;;;;;5074023;28;20103;-81
2022/07/19 11:49:09;;;;;;;7.85;4.45;;;9.90;99.90;;;;;;5071664;28;20451;-81
2022/07/19 11:51:40;;;;;;;11.15;4.88;;;9.80;99.90;;;;;;5055233;28;20048;-79
2022/07/19 11:54:09;;;;;;;9.50;3.90;;;9.80;99.90;;;;;;5071873;28;20029;-79
2022/07/19 11:56:37;;;;;;;6.22;3.83;;;9.70;99.90;;;;;;5071729;28;20025;-79
2022/07/19 11:59:08;;;;;;;6.93;4.10;;;9.70;99.90;;;;;;5071856;28;20033;-81
2022/07/19 12:01:36;;;;;;;;;;;9.60;99.90;;;;;;5073599;28;20392;-81
2022/07/19 12:04:13;;;;;;;7.78;4.45;;;9.60;99.90;;;;;;5073365;28;19909;-81
2022/07/19 12:06:45;;;;;;;7.30;4.75;;;9.60;99.90;;;;;;5073301;28;20094;-80
2022/07/19 12:09:16;;;;;;;12.18;6.82;;;9.50;99.90;;;;;;5071902;28;20062;-81
2022/07/19 12:11:47;;;;;;;;;;;9.50;99.90;;;;;;5072380;28;20047;-78
2022/07/19 12:14:37;;;;;;;;;;;9.50;99.90;;;;;;5073551;28;19952;-80
2022/07/19 12:17:21;;;;;;;8.60;3.75;;;9.40;99.90;;;;;;5072982;28;19910;-80
2022/07/19 12:19:55;;;;;;;7.93;4.10;;;9.40;99.90;;;;;;5073314;28;20067;-81
2022/07/19 12:22:35;;;;;;;7.93;4.65;;;9.40;99.90;;;;;;5073364;28;20028;-81
2022/07/19 12:25:05;;;;;;;13.13;5.03;;;9.40;99.90;;;;;;5072486;28;20056;-81
2022/07/19 12:27:33;;;;;;;9.73;4.13;;;9.50;99.90;;;;;;5073382;28;20484;-80
2022/07/19 12:30:04;;;;;;;7.32;4.63;;;9.50;99.90;;;;;;5072967;28;20040;-81
2022/07/19 12:32:36;;;;;;;5.45;3.47;;;9.50;99.90;;;;;;5071632;28;20021;-80
2022/07/19 12:35:11;;;;;;;7.20;3.65;;;9.50;99.90;;;;;;5073124;28;20017;-80
2022/07/19 12:37:43;;;;;;;5.63;3.92;;;9.50;99.90;;;;;;5073336;28;20507;-79
2022/07/19 12:40:19;;;;;;;5.43;4.05;;;9.50;99.90;;;;;;5071642;28;20060;-80
2022/07/19 12:43:02;;;;;;;5.78;4.70;;;9.40;99.90;;;;;;5071692;28;20051;-78
2022/07/19 12:45:36;;;;;;;8.48;4.40;;;9.30;99.90;;;;;;5072854;28;20029;-80
2022/07/19 12:48:04;;;;;;;8.75;5.50;;;9.30;99.90;;;;;;5073043;28;20048;-79
2022/07/19 12:50:46;;;;;;;11.50;6.00;;;9.30;99.90;;;;;;5073231;28;20447;-81
2022/07/19 12:53:17;;;;;;;9.75;5.25;;;9.30;99.90;;;;;;5076463;28;20040;-79
2022/07/19 12:55:45;;;;;;;7.43;5.13;;;9.40;99.90;;;;;;5075242;28;20032;-79
2022/07/19 12:59:38;;;;;;;9.52;5.97;;;9.30;99.90;;;;;;5076354;28;20016;-80
2022/07/19 13:01:03;;;;;;;9.70;5.95;;;9.30;99.90;;;;;;5076333;28;20032;-78